Monday, January 26, 2015
08:25 UTC
  |  Log In   |  Register Free
Airport Search:

Orlando Sanford International Airport
(KSFB)

FAA data valid effective January 08, 2015 - March 05, 2015 (unless otherwise noted).

 
 
 
 
 
 
 
 
 
 
 
 
 
 

Current Aviation Weather for Orlando Sanford International Airport (KSFB)

The most recent METAR observation for KSFB was updated at: 0817
METAR Summary (Translated METAR)
KSFB
260753Z AUTO 18006KT 10SM CLR 13/09 A2987 RMK AO2 SLP116 T01280094
KORL
260753Z AUTO 20009KT 10SM CLR 14/11 A2988 RMK AO2 SLP122 T01390106
(14.8 nm SW from KSFB)
KDED
260755Z AUTO 19009KT 10SM CLR 12/10 A2987 RMK AO1
(17.6 nm NW from KSFB)
TAF Summary (Translated TAF)
KSFB
260529Z 2606/2706 20005KT P6SM SCT200 BKN250 FM261000 23004KT P6SM VCSH BKN030 BKN050 FM261400 27015G22KT P6SM SCT030 BKN050 FM261600 28020G28KT P6SM FEW030 SCT050 SCT120 FM270000 28016G23KT P6SM SKC
  Airport Weather Conditions for KSFB

 Current Weather at SFB
55° F
Fair
South winds at 6.9 mph
SFB NOAA Radar

Pressure: 29.87 in
Humidity: 80%
Wind: South at 6.9 MPH (6 KT)
Dew Point: 48.9°F
Visibility: 10.00 mi


Airport Weather Forecast for KSFB

Translated METAR and TAF for KSFB
Translated METAR for KSFB (0825 UTC 26 January 2015)
found at http://aviationweather.gov/adds/metars/
 
METAR text: KSFB 260753Z AUTO 18006KT 10SM CLR 13/09 A2987 RMK AO2 SLP116 T01280094
Conditions at: KSFB (SANFORD/ORLANDO , FL, US) observed 0753 UTC 26 January 2015
Temperature: 12.8°C (55°F)
Dewpoint: 9.4°C (49°F) [RH = 80%]
Pressure (altimeter): 29.87 inches Hg (1011.6 mb)
[Sea-level pressure: 1011.6 mb]
Winds: from the S (180 degrees) at 7 MPH (6 knots; 3.1 m/s)
Visibility: 10 or more miles (16+ km)
Ceiling: at least 12,000 feet AGL
Clouds: sky clear below 12,000 feet AGL
Weather: automated observation with no human augmentation;
there may or may not be significant weather present at this time
Translated TAF for KSFB
Forecast for: KSFB (SANFORD/ORLANDO , FL, US)
TAF Text: KSFB 260529Z 2606/2706 20005KT P6SM SCT200 BKN250
Forecast period: 0600 to 1000 UTC 26 January 2015
Forecast type: FROM: standard forecast or significant change
Winds: from the SSW (200 degrees) at 6 MPH (5 knots; 2.6 m/s)
Visibility: 6 or more miles (10+ km)
Ceiling: 25000 feet AGL
Clouds: scattered clouds at 20000 feet AGL
broken clouds at 25000 feet AGL
Weather: no significant weather forecast for this period
TAF Text: FM261000 23004KT P6SM VCSH BKN030 BKN050
Forecast period: 1000 to 1400 UTC 26 January 2015
Forecast type: FROM: standard forecast or significant change
Winds: from the SW (230 degrees) at 5 MPH (4 knots; 2.1 m/s)
Visibility: 6 or more miles (10+ km)
Ceiling: 3000 feet AGL
Clouds: broken clouds at 3000 feet AGL
broken clouds at 5000 feet AGL
Weather: VCSH  (showers in vicinity)
TAF Text: FM261400 27015G22KT P6SM SCT030 BKN050
Forecast period: 1400 to 1600 UTC 26 January 2015
Forecast type: FROM: standard forecast or significant change
Winds: from the W (270 degrees) at 17 MPH (15 knots; 7.8 m/s)
gusting to 25 MPH (22 knots; 11.4 m/s)
Visibility: 6 or more miles (10+ km)
Ceiling: 5000 feet AGL
Clouds: scattered clouds at 3000 feet AGL
broken clouds at 5000 feet AGL
Weather: no significant weather forecast for this period
TAF Text: FM261600 28020G28KT P6SM FEW030 SCT050 SCT120
Forecast period: 1600 UTC 26 January 2015 to 0000 UTC 27 January 2015
Forecast type: FROM: standard forecast or significant change
Winds: from the W (280 degrees) at 23 MPH (20 knots; 10.4 m/s)
gusting to 32 MPH (28 knots; 14.6 m/s)
Visibility: 6 or more miles (10+ km)
Clouds: few clouds at 3000 feet AGL
scattered clouds at 5000 feet AGL
scattered clouds at 12000 feet AGL
Weather: no significant weather forecast for this period
TAF Text: FM270000 28016G23KT P6SM SKC
Forecast period: 0000 to 0600 UTC 27 January 2015
Forecast type: FROM: standard forecast or significant change
Winds: from the W (280 degrees) at 18 MPH (16 knots; 8.3 m/s)
gusting to 26 MPH (23 knots; 12.0 m/s)
Visibility: 6 or more miles (10+ km)
Clouds: clear skies
Weather: no significant weather forecast for this period

Find All Airport Services Find A Hotel Find A Rental Car Find A Golf Course Find A Restaurant $100 Hamburger



FBO's on the Field
FBO Company Facility Photos Services Transportation Aviation Fuel Prices: Prices include tax
Catering Weather Repair Courtesy Rental Type 100LL JetA JetA+ MOGAS 8087
 
StarPort

StarPort logo
Currently rated 3.8 by 7 people
FS:
Last Updated: Jan-12
Login to update fuel prices
SS:
Contact StarPortMore FBO Information
 
Million Air Sanford

Currently rated 3.6 by 3 people
FS:Avfuel
Last Updated: Jan-20
Login to update fuel prices
SS:
Contact Million Air SanfordMore FBO Information
 
Add another FBO Facility Photos Catering Weather Repair Courtesy Rental Type 100LL JetA JetA+ MOGAS 8087
Services Transportation Aviation Fuel Prices: Prices include tax


model-print
model-print
model-print
model-print